sensor_id;sensor_type;location;lat;lon;timestamp;P1;durP1;ratioP1;P2;durP2;ratioP2
27313;SDS011;14800;48.174;9.798;2024-02-21T00:00:14;6.55;;;3.50;;
27313;SDS011;14800;48.174;9.798;2024-02-21T00:02:40;6.60;;;3.35;;
27313;SDS011;14800;48.174;9.798;2024-02-21T00:05:06;10.23;;;4.20;;
27313;SDS011;14800;48.174;9.798;2024-02-21T00:07:32;10.13;;;3.90;;
27313;SDS011;14800;48.174;9.798;2024-02-21T00:09:57;7.53;;;3.83;;
27313;SDS011;14800;48.174;9.798;2024-02-21T00:12:23;9.82;;;3.80;;
27313;SDS011;14800;48.174;9.798;2024-02-21T00:14:49;9.60;;;3.35;;
27313;SDS011;14800;48.174;9.798;2024-02-21T00:17:14;8.35;;;3.00;;
27313;SDS011;14800;48.174;9.798;2024-02-21T00:19:40;9.07;;;3.25;;
27313;SDS011;14800;48.174;9.798;2024-02-21T00:22:06;6.25;;;2.88;;
27313;SDS011;14800;48.174;9.798;2024-02-21T00:24:31;8.18;;;2.90;;
27313;SDS011;14800;48.174;9.798;2024-02-21T00:26:57;6.32;;;2.97;;
27313;SDS011;14800;48.174;9.798;2024-02-21T00:29:22;8.13;;;3.10;;
27313;SDS011;14800;48.174;9.798;2024-02-21T00:31:48;7.13;;;2.85;;
27313;SDS011;14800;48.174;9.798;2024-02-21T00:34:14;7.45;;;3.05;;
27313;SDS011;14800;48.174;9.798;2024-02-21T00:36:40;6.63;;;3.08;;
27313;SDS011;14800;48.174;9.798;2024-02-21T00:39:05;9.02;;;3.28;;
27313;SDS011;14800;48.174;9.798;2024-02-21T00:41:31;10.75;;;3.00;;
27313;SDS011;14800;48.174;9.798;2024-02-21T00:43:57;12.25;;;3.70;;
27313;SDS011;14800;48.174;9.798;2024-02-21T00:46:22;7.88;;;3.05;;
27313;SDS011;14800;48.174;9.798;2024-02-21T00:48:48;8.65;;;3.13;;
27313;SDS011;14800;48.174;9.798;2024-02-21T00:51:14;7.80;;;3.00;;
27313;SDS011;14800;48.174;9.798;2024-02-21T00:53:40;7.90;;;3.42;;
27313;SDS011;14800;48.174;9.798;2024-02-21T00:56:06;7.43;;;2.85;;
27313;SDS011;14800;48.174;9.798;2024-02-21T00:58:32;7.28;;;3.42;;
27313;SDS011;14800;48.174;9.798;2024-02-21T01:00:58;9.50;;;3.70;;
27313;SDS011;14800;48.174;9.798;2024-02-21T01:03:23;11.38;;;3.58;;
27313;SDS011;14800;48.174;9.798;2024-02-21T01:05:49;8.02;;;3.50;;
27313;SDS011;14800;48.174;9.798;2024-02-21T01:08:14;8.85;;;3.83;;
27313;SDS011;14800;48.174;9.798;2024-02-21T01:10:40;9.15;;;3.63;;
27313;SDS011;14800;48.174;9.798;2024-02-21T01:13:06;9.48;;;3.63;;
27313;SDS011;14800;48.174;9.798;2024-02-21T01:15:32;10.13;;;3.70;;
27313;SDS011;14800;48.174;9.798;2024-02-21T01:17:58;8.60;;;3.40;;
27313;SDS011;14800;48.174;9.798;2024-02-21T01:20:23;8.38;;;3.65;;
27313;SDS011;14800;48.174;9.798;2024-02-21T01:22:49;6.55;;;3.10;;
27313;SDS011;14800;48.174;9.798;2024-02-21T01:25:15;6.22;;;2.95;;
27313;SDS011;14800;48.174;9.798;2024-02-21T01:27:40;8.32;;;3.03;;
27313;SDS011;14800;48.174;9.798;2024-02-21T01:30:06;7.78;;;3.58;;
27313;SDS011;14800;48.174;9.798;2024-02-21T01:32:32;5.47;;;3.08;;
27313;SDS011;14800;48.174;9.798;2024-02-21T01:34:58;8.35;;;3.40;;
27313;SDS011;14800;48.174;9.798;2024-02-21T01:37:24;7.65;;;3.53;;
27313;SDS011;14800;48.174;9.798;2024-02-21T01:39:50;6.55;;;3.55;;
27313;SDS011;14800;48.174;9.798;2024-02-21T01:42:15;9.32;;;3.72;;
27313;SDS011;14800;48.174;9.798;2024-02-21T01:44:41;9.05;;;3.75;;
27313;SDS011;14800;48.174;9.798;2024-02-21T01:47:07;6.15;;;2.97;;
27313;SDS011;14800;48.174;9.798;2024-02-21T01:49:33;8.45;;;3.40;;
27313;SDS011;14800;48.174;9.798;2024-02-21T01:51:58;6.88;;;3.17;;
27313;SDS011;14800;48.174;9.798;2024-02-21T01:54:25;7.60;;;3.33;;
27313;SDS011;14800;48.174;9.798;2024-02-21T01:56:53;6.88;;;3.03;;
27313;SDS011;14800;48.174;9.798;2024-02-21T01:59:19;9.60;;;3.10;;
27313;SDS011;14800;48.174;9.798;2024-02-21T02:01:47;5.57;;;3.05;;
27313;SDS011;14800;48.174;9.798;2024-02-21T02:04:13;6.13;;;3.15;;
27313;SDS011;14800;48.174;9.798;2024-02-21T02:06:39;7.45;;;3.60;;
27313;SDS011;14800;48.174;9.798;2024-02-21T02:09:06;8.90;;;3.47;;
27313;SDS011;14800;48.174;9.798;2024-02-21T02:11:31;6.53;;;3.75;;
27313;SDS011;14800;48.174;9.798;2024-02-21T02:13:57;10.45;;;3.47;;
27313;SDS011;14800;48.174;9.798;2024-02-21T02:16:23;6.82;;;3.50;;
27313;SDS011;14800;48.174;9.798;2024-02-21T02:18:49;8.18;;;3.33;;
27313;SDS011;14800;48.174;9.798;2024-02-21T02:21:28;8.70;;;3.53;;
27313;SDS011;14800;48.174;9.798;2024-02-21T02:23:56;7.55;;;3.83;;
27313;SDS011;14800;48.174;9.798;2024-02-21T02:26:21;8.73;;;3.65;;
27313;SDS011;14800;48.174;9.798;2024-02-21T02:28:47;6.65;;;4.07;;
27313;SDS011;14800;48.174;9.798;2024-02-21T02:31:13;7.65;;;3.50;;
27313;SDS011;14800;48.174;9.798;2024-02-21T02:33:38;9.68;;;3.80;;
27313;SDS011;14800;48.174;9.798;2024-02-21T02:36:04;9.18;;;3.55;;
27313;SDS011;14800;48.174;9.798;2024-02-21T02:38:30;8.98;;;3.70;;
27313;SDS011;14800;48.174;9.798;2024-02-21T02:40:55;6.85;;;3.50;;
27313;SDS011;14800;48.174;9.798;2024-02-21T02:43:21;4.97;;;3.03;;
27313;SDS011;14800;48.174;9.798;2024-02-21T02:45:46;9.38;;;3.25;;
27313;SDS011;14800;48.174;9.798;2024-02-21T02:48:12;7.82;;;3.05;;
27313;SDS011;14800;48.174;9.798;2024-02-21T02:50:38;7.40;;;2.88;;
27313;SDS011;14800;48.174;9.798;2024-02-21T02:53:03;5.57;;;2.85;;
27313;SDS011;14800;48.174;9.798;2024-02-21T02:55:29;7.57;;;2.95;;
27313;SDS011;14800;48.174;9.798;2024-02-21T02:57:54;6.28;;;3.03;;
27313;SDS011;14800;48.174;9.798;2024-02-21T03:00:21;7.47;;;3.42;;
27313;SDS011;14800;48.174;9.798;2024-02-21T03:02:46;7.40;;;3.50;;
27313;SDS011;14800;48.174;9.798;2024-02-21T03:05:18;7.70;;;2.95;;
27313;SDS011;14800;48.174;9.798;2024-02-21T03:07:45;6.18;;;2.88;;
27313;SDS011;14800;48.174;9.798;2024-02-21T03:10:11;7.70;;;3.20;;
27313;SDS011;14800;48.174;9.798;2024-02-21T03:12:38;5.25;;;2.92;;
27313;SDS011;14800;48.174;9.798;2024-02-21T03:15:04;7.93;;;3.20;;
27313;SDS011;14800;48.174;9.798;2024-02-21T03:17:30;6.80;;;3.00;;
27313;SDS011;14800;48.174;9.798;2024-02-21T03:19:57;8.05;;;3.53;;
27313;SDS011;14800;48.174;9.798;2024-02-21T03:22:24;10.45;;;3.72;;
27313;SDS011;14800;48.174;9.798;2024-02-21T03:24:50;8.45;;;3.63;;
27313;SDS011;14800;48.174;9.798;2024-02-21T03:27:16;8.40;;;3.55;;
27313;SDS011;14800;48.174;9.798;2024-02-21T03:29:42;9.20;;;3.63;;
27313;SDS011;14800;48.174;9.798;2024-02-21T03:32:07;6.70;;;3.50;;
27313;SDS011;14800;48.174;9.798;2024-02-21T03:34:33;7.93;;;3.92;;
27313;SDS011;14800;48.174;9.798;2024-02-21T03:36:59;6.25;;;3.50;;
27313;SDS011;14800;48.174;9.798;2024-02-21T03:39:25;8.68;;;3.75;;
27313;SDS011;14800;48.174;9.798;2024-02-21T03:41:50;5.50;;;3.30;;
27313;SDS011;14800;48.174;9.798;2024-02-21T03:44:16;7.18;;;3.58;;
27313;SDS011;14800;48.174;9.798;2024-02-21T03:46:42;8.30;;;3.80;;
27313;SDS011;14800;48.174;9.798;2024-02-21T03:49:07;6.20;;;3.47;;
27313;SDS011;14800;48.174;9.798;2024-02-21T03:51:33;8.32;;;3.53;;
27313;SDS011;14800;48.174;9.798;2024-02-21T03:53:58;8.73;;;3.50;;
27313;SDS011;14800;48.174;9.798;2024-02-21T03:56:24;6.15;;;3.35;;
27313;SDS011;14800;48.174;9.798;2024-02-21T03:58:50;7.50;;;3.40;;
27313;SDS011;14800;48.174;9.798;2024-02-21T04:01:15;7.85;;;3.42;;
27313;SDS011;14800;48.174;9.798;2024-02-21T04:03:42;6.70;;;2.85;;
27313;SDS011;14800;48.174;9.798;2024-02-21T04:06:08;4.60;;;2.83;;
27313;SDS011;14800;48.174;9.798;2024-02-21T04:08:34;10.23;;;3.17;;
27313;SDS011;14800;48.174;9.798;2024-02-21T04:11:00;5.07;;;3.05;;
27313;SDS011;14800;48.174;9.798;2024-02-21T04:13:26;6.45;;;3.08;;
27313;SDS011;14800;48.174;9.798;2024-02-21T04:15:51;6.15;;;2.80;;
27313;SDS011;14800;48.174;9.798;2024-02-21T04:18:17;4.93;;;2.97;;
27313;SDS011;14800;48.174;9.798;2024-02-21T04:20:43;4.95;;;2.65;;
27313;SDS011;14800;48.174;9.798;2024-02-21T04:23:08;5.10;;;2.65;;
27313;SDS011;14800;48.174;9.798;2024-02-21T04:25:34;5.68;;;2.95;;
27313;SDS011;14800;48.174;9.798;2024-02-21T04:27:59;4.57;;;2.88;;
27313;SDS011;14800;48.174;9.798;2024-02-21T04:30:25;3.67;;;2.40;;
27313;SDS011;14800;48.174;9.798;2024-02-21T04:32:51;3.05;;;2.40;;
27313;SDS011;14800;48.174;9.798;2024-02-21T04:35:16;3.70;;;2.38;;
27313;SDS011;14800;48.174;9.798;2024-02-21T04:37:42;6.35;;;2.78;;
27313;SDS011;14800;48.174;9.798;2024-02-21T04:40:08;4.03;;;2.25;;
27313;SDS011;14800;48.174;9.798;2024-02-21T04:42:34;3.83;;;2.22;;
27313;SDS011;14800;48.174;9.798;2024-02-21T04:45:00;8.20;;;2.33;;
27313;SDS011;14800;48.174;9.798;2024-02-21T04:47:25;6.03;;;2.20;;
27313;SDS011;14800;48.174;9.798;2024-02-21T04:49:51;3.85;;;2.30;;
27313;SDS011;14800;48.174;9.798;2024-02-21T04:52:17;4.32;;;2.45;;
27313;SDS011;14800;48.174;9.798;2024-02-21T04:54:42;5.88;;;2.63;;
27313;SDS011;14800;48.174;9.798;2024-02-21T04:57:08;5.55;;;2.33;;
27313;SDS011;14800;48.174;9.798;2024-02-21T04:59:35;3.50;;;2.10;;
27313;SDS011;14800;48.174;9.798;2024-02-21T05:02:01;3.30;;;2.25;;
27313;SDS011;14800;48.174;9.798;2024-02-21T05:04:27;3.97;;;2.10;;
27313;SDS011;14800;48.174;9.798;2024-02-21T05:06:52;3.70;;;2.22;;
27313;SDS011;14800;48.174;9.798;2024-02-21T05:09:18;6.05;;;2.40;;
27313;SDS011;14800;48.174;9.798;2024-02-21T05:11:43;2.90;;;1.88;;
27313;SDS011;14800;48.174;9.798;2024-02-21T05:14:09;3.92;;;2.20;;
27313;SDS011;14800;48.174;9.798;2024-02-21T05:16:34;3.13;;;2.10;;
27313;SDS011;14800;48.174;9.798;2024-02-21T05:19:00;4.13;;;2.10;;
27313;SDS011;14800;48.174;9.798;2024-02-21T05:21:25;5.22;;;2.50;;
27313;SDS011;14800;48.174;9.798;2024-02-21T05:23:53;6.25;;;2.42;;
27313;SDS011;14800;48.174;9.798;2024-02-21T05:26:21;5.45;;;2.50;;
27313;SDS011;14800;48.174;9.798;2024-02-21T05:28:47;5.22;;;2.20;;
27313;SDS011;14800;48.174;9.798;2024-02-21T05:31:13;8.57;;;2.30;;
27313;SDS011;14800;48.174;9.798;2024-02-21T05:33:39;4.63;;;2.25;;
27313;SDS011;14800;48.174;9.798;2024-02-21T05:36:05;8.15;;;2.45;;
27313;SDS011;14800;48.174;9.798;2024-02-21T05:38:31;4.68;;;2.20;;
27313;SDS011;14800;48.174;9.798;2024-02-21T05:40:56;2.42;;;2.22;;
27313;SDS011;14800;48.174;9.798;2024-02-21T05:43:22;4.07;;;2.60;;
27313;SDS011;14800;48.174;9.798;2024-02-21T05:45:47;4.50;;;2.58;;
27313;SDS011;14800;48.174;9.798;2024-02-21T05:48:13;3.40;;;2.40;;
27313;SDS011;14800;48.174;9.798;2024-02-21T05:50:39;5.22;;;2.28;;
27313;SDS011;14800;48.174;9.798;2024-02-21T05:53:04;3.40;;;2.35;;
27313;SDS011;14800;48.174;9.798;2024-02-21T05:55:30;5.93;;;2.10;;
27313;SDS011;14800;48.174;9.798;2024-02-21T05:57:56;3.28;;;2.20;;
27313;SDS011;14800;48.174;9.798;2024-02-21T06:00:21;5.15;;;2.15;;
27313;SDS011;14800;48.174;9.798;2024-02-21T06:02:47;3.97;;;2.40;;
27313;SDS011;14800;48.174;9.798;2024-02-21T06:05:12;4.53;;;2.30;;
27313;SDS011;14800;48.174;9.798;2024-02-21T06:07:38;4.32;;;2.00;;
27313;SDS011;14800;48.174;9.798;2024-02-21T06:10:04;3.20;;;1.80;;
27313;SDS011;14800;48.174;9.798;2024-02-21T06:12:31;4.28;;;2.28;;
27313;SDS011;14800;48.174;9.798;2024-02-21T06:14:57;5.13;;;2.28;;
27313;SDS011;14800;48.174;9.798;2024-02-21T06:17:22;4.95;;;1.90;;
27313;SDS011;14800;48.174;9.798;2024-02-21T06:19:48;5.82;;;2.20;;
27313;SDS011;14800;48.174;9.798;2024-02-21T06:22:13;5.20;;;2.20;;
27313;SDS011;14800;48.174;9.798;2024-02-21T06:24:39;2.15;;;1.73;;
27313;SDS011;14800;48.174;9.798;2024-02-21T06:27:05;2.20;;;1.77;;
27313;SDS011;14800;48.174;9.798;2024-02-21T06:29:33;4.65;;;2.08;;
27313;SDS011;14800;48.174;9.798;2024-02-21T06:32:00;3.22;;;2.08;;
27313;SDS011;14800;48.174;9.798;2024-02-21T06:34:27;8.85;;;1.88;;
27313;SDS011;14800;48.174;9.798;2024-02-21T06:36:53;6.30;;;2.03;;
27313;SDS011;14800;48.174;9.798;2024-02-21T06:39:18;4.07;;;2.22;;
27313;SDS011;14800;48.174;9.798;2024-02-21T06:41:44;5.65;;;2.60;;
27313;SDS011;14800;48.174;9.798;2024-02-21T06:44:10;6.43;;;2.80;;
27313;SDS011;14800;48.174;9.798;2024-02-21T06:46:35;5.53;;;2.60;;
27313;SDS011;14800;48.174;9.798;2024-02-21T06:49:01;7.50;;;2.60;;
27313;SDS011;14800;48.174;9.798;2024-02-21T06:51:30;4.25;;;2.85;;
27313;SDS011;14800;48.174;9.798;2024-02-21T06:53:55;6.97;;;3.08;;
27313;SDS011;14800;48.174;9.798;2024-02-21T06:56:23;7.68;;;3.00;;
27313;SDS011;14800;48.174;9.798;2024-02-21T06:58:57;5.78;;;3.50;;
27313;SDS011;14800;48.174;9.798;2024-02-21T07:01:23;5.82;;;3.25;;
27313;SDS011;14800;48.174;9.798;2024-02-21T07:03:49;7.40;;;2.80;;
27313;SDS011;14800;48.174;9.798;2024-02-21T07:06:14;4.53;;;2.88;;
27313;SDS011;14800;48.174;9.798;2024-02-21T07:08:40;5.25;;;2.78;;
27313;SDS011;14800;48.174;9.798;2024-02-21T07:11:05;4.93;;;3.08;;
27313;SDS011;14800;48.174;9.798;2024-02-21T07:13:32;5.50;;;3.13;;
27313;SDS011;14800;48.174;9.798;2024-02-21T07:15:57;5.78;;;3.55;;
27313;SDS011;14800;48.174;9.798;2024-02-21T07:18:23;11.50;;;5.03;;
27313;SDS011;14800;48.174;9.798;2024-02-21T07:20:50;9.75;;;5.18;;
27313;SDS011;14800;48.174;9.798;2024-02-21T07:23:16;9.02;;;5.28;;
27313;SDS011;14800;48.174;9.798;2024-02-21T07:25:43;9.30;;;5.13;;
27313;SDS011;14800;48.174;9.798;2024-02-21T07:28:08;6.20;;;4.40;;
27313;SDS011;14800;48.174;9.798;2024-02-21T07:30:34;7.70;;;4.50;;
27313;SDS011;14800;48.174;9.798;2024-02-21T07:33:00;10.25;;;4.03;;
27313;SDS011;14800;48.174;9.798;2024-02-21T07:35:25;7.18;;;3.90;;
27313;SDS011;14800;48.174;9.798;2024-02-21T07:37:51;6.07;;;3.75;;
27313;SDS011;14800;48.174;9.798;2024-02-21T07:40:17;9.50;;;3.28;;
27313;SDS011;14800;48.174;9.798;2024-02-21T07:42:43;5.72;;;3.20;;
27313;SDS011;14800;48.174;9.798;2024-02-21T07:45:08;7.10;;;3.10;;
27313;SDS011;14800;48.174;9.798;2024-02-21T07:47:35;5.82;;;2.90;;
27313;SDS011;14800;48.174;9.798;2024-02-21T07:50:01;5.65;;;2.55;;
27313;SDS011;14800;48.174;9.798;2024-02-21T07:52:27;7.13;;;2.65;;
27313;SDS011;14800;48.174;9.798;2024-02-21T07:54:53;4.80;;;2.50;;
27313;SDS011;14800;48.174;9.798;2024-02-21T07:57:19;6.35;;;2.85;;
27313;SDS011;14800;48.174;9.798;2024-02-21T07:59:44;3.88;;;2.80;;
27313;SDS011;14800;48.174;9.798;2024-02-21T08:02:12;6.70;;;2.88;;
27313;SDS011;14800;48.174;9.798;2024-02-21T08:04:41;4.57;;;1.88;;
27313;SDS011;14800;48.174;9.798;2024-02-21T08:07:07;4.40;;;1.90;;
27313;SDS011;14800;48.174;9.798;2024-02-21T08:09:33;2.47;;;1.48;;
27313;SDS011;14800;48.174;9.798;2024-02-21T08:11:58;3.83;;;1.70;;
27313;SDS011;14800;48.174;9.798;2024-02-21T08:14:24;3.40;;;1.70;;
27313;SDS011;14800;48.174;9.798;2024-02-21T08:16:52;5.85;;;1.70;;
27313;SDS011;14800;48.174;9.798;2024-02-21T08:19:18;1.75;;;1.35;;
27313;SDS011;14800;48.174;9.798;2024-02-21T08:21:44;2.42;;;1.50;;
27313;SDS011;14800;48.174;9.798;2024-02-21T08:24:12;4.50;;;1.70;;
27313;SDS011;14800;48.174;9.798;2024-02-21T08:26:41;5.40;;;1.70;;
27313;SDS011;14800;48.174;9.798;2024-02-21T08:29:07;3.17;;;1.73;;
27313;SDS011;14800;48.174;9.798;2024-02-21T08:31:33;4.22;;;1.63;;
27313;SDS011;14800;48.174;9.798;2024-02-21T08:33:59;3.65;;;2.00;;
27313;SDS011;14800;48.174;9.798;2024-02-21T08:36:28;3.50;;;1.90;;
27313;SDS011;14800;48.174;9.798;2024-02-21T08:38:55;5.28;;;2.10;;
27313;SDS011;14800;48.174;9.798;2024-02-21T08:41:21;4.55;;;1.70;;
27313;SDS011;14800;48.174;9.798;2024-02-21T08:43:48;2.55;;;1.52;;
27313;SDS011;14800;48.174;9.798;2024-02-21T08:46:15;5.75;;;1.80;;
27313;SDS011;14800;48.174;9.798;2024-02-21T08:48:40;2.53;;;1.38;;
27313;SDS011;14800;48.174;9.798;2024-02-21T08:51:06;3.13;;;1.33;;
27313;SDS011;14800;48.174;9.798;2024-02-21T08:53:31;1.90;;;1.50;;
27313;SDS011;14800;48.174;9.798;2024-02-21T08:55:57;4.43;;;1.63;;
27313;SDS011;14800;48.174;9.798;2024-02-21T08:58:24;3.88;;;1.40;;
27313;SDS011;14800;48.174;9.798;2024-02-21T09:00:51;2.03;;;1.13;;
27313;SDS011;14800;48.174;9.798;2024-02-21T09:03:17;6.82;;;1.30;;
27313;SDS011;14800;48.174;9.798;2024-02-21T09:05:45;6.50;;;1.70;;
27313;SDS011;14800;48.174;9.798;2024-02-21T09:08:11;2.85;;;1.50;;
27313;SDS011;14800;48.174;9.798;2024-02-21T09:10:37;3.53;;;1.30;;
27313;SDS011;14800;48.174;9.798;2024-02-21T09:13:02;4.80;;;1.52;;
27313;SDS011;14800;48.174;9.798;2024-02-21T09:15:28;3.45;;;1.55;;
27313;SDS011;14800;48.174;9.798;2024-02-21T09:17:54;4.03;;;1.30;;
27313;SDS011;14800;48.174;9.798;2024-02-21T09:20:20;2.75;;;1.50;;
27313;SDS011;14800;48.174;9.798;2024-02-21T09:22:45;4.32;;;1.70;;
27313;SDS011;14800;48.174;9.798;2024-02-21T09:25:11;1.77;;;1.40;;
27313;SDS011;14800;48.174;9.798;2024-02-21T09:27:37;5.05;;;1.40;;
27313;SDS011;14800;48.174;9.798;2024-02-21T09:30:04;2.97;;;1.38;;
27313;SDS011;14800;48.174;9.798;2024-02-21T09:32:31;3.42;;;1.42;;
27313;SDS011;14800;48.174;9.798;2024-02-21T09:34:57;3.67;;;1.40;;
27313;SDS011;14800;48.174;9.798;2024-02-21T09:37:23;1.60;;;1.10;;
27313;SDS011;14800;48.174;9.798;2024-02-21T09:39:49;3.30;;;1.30;;
27313;SDS011;14800;48.174;9.798;2024-02-21T09:42:17;1.90;;;1.02;;
27313;SDS011;14800;48.174;9.798;2024-02-21T09:44:45;4.45;;;1.35;;
27313;SDS011;14800;48.174;9.798;2024-02-21T09:49:47;2.10;;;0.93;;
27313;SDS011;14800;48.174;9.798;2024-02-21T09:52:13;1.95;;;0.90;;
27313;SDS011;14800;48.174;9.798;2024-02-21T09:54:40;4.03;;;1.15;;
27313;SDS011;14800;48.174;9.798;2024-02-21T09:57:10;1.88;;;1.05;;
27313;SDS011;14800;48.174;9.798;2024-02-21T09:59:36;4.47;;;1.17;;
27313;SDS011;14800;48.174;9.798;2024-02-21T10:02:02;2.75;;;1.27;;
27313;SDS011;14800;48.174;9.798;2024-02-21T10:04:29;2.72;;;1.15;;
27313;SDS011;14800;48.174;9.798;2024-02-21T10:06:55;3.13;;;0.95;;
27313;SDS011;14800;48.174;9.798;2024-02-21T10:09:24;3.30;;;1.33;;
27313;SDS011;14800;48.174;9.798;2024-02-21T10:12:07;3.50;;;1.30;;
27313;SDS011;14800;48.174;9.798;2024-02-21T10:14:36;2.63;;;1.10;;
27313;SDS011;14800;48.174;9.798;2024-02-21T10:17:02;2.38;;;1.08;;
27313;SDS011;14800;48.174;9.798;2024-02-21T10:19:30;3.13;;;1.10;;
27313;SDS011;14800;48.174;9.798;2024-02-21T10:22:02;4.05;;;1.20;;
27313;SDS011;14800;48.174;9.798;2024-02-21T10:24:29;4.18;;;1.38;;
27313;SDS011;14800;48.174;9.798;2024-02-21T10:26:58;4.63;;;1.20;;
27313;SDS011;14800;48.174;9.798;2024-02-21T10:29:29;13.43;;;1.55;;
27313;SDS011;14800;48.174;9.798;2024-02-21T10:32:07;3.42;;;1.27;;
27313;SDS011;14800;48.174;9.798;2024-02-21T10:34:37;3.97;;;1.60;;
27313;SDS011;14800;48.174;9.798;2024-02-21T10:37:05;1.95;;;1.17;;
27313;SDS011;14800;48.174;9.798;2024-02-21T10:39:32;3.63;;;1.20;;
27313;SDS011;14800;48.174;9.798;2024-02-21T10:41:59;1.35;;;1.20;;
27313;SDS011;14800;48.174;9.798;2024-02-21T10:44:28;4.72;;;1.02;;
27313;SDS011;14800;48.174;9.798;2024-02-21T10:46:55;1.45;;;1.15;;
27313;SDS011;14800;48.174;9.798;2024-02-21T10:49:25;2.88;;;1.25;;
27313;SDS011;14800;48.174;9.798;2024-02-21T10:52:06;2.65;;;1.00;;
27313;SDS011;14800;48.174;9.798;2024-02-21T10:54:44;1.80;;;1.00;;
27313;SDS011;14800;48.174;9.798;2024-02-21T10:57:15;3.22;;;1.23;;
27313;SDS011;14800;48.174;9.798;2024-02-21T10:59:41;3.97;;;1.10;;
27313;SDS011;14800;48.174;9.798;2024-02-21T11:02:09;2.95;;;1.40;;
27313;SDS011;14800;48.174;9.798;2024-02-21T11:04:35;5.35;;;1.52;;
27313;SDS011;14800;48.174;9.798;2024-02-21T11:07:02;5.07;;;1.58;;
27313;SDS011;14800;48.174;9.798;2024-02-21T11:09:31;1.95;;;1.10;;
27313;SDS011;14800;48.174;9.798;2024-02-21T11:11:57;2.17;;;1.10;;
27313;SDS011;14800;48.174;9.798;2024-02-21T11:14:26;1.60;;;1.05;;
27313;SDS011;14800;48.174;9.798;2024-02-21T11:16:53;1.95;;;1.23;;
27313;SDS011;14800;48.174;9.798;2024-02-21T11:19:19;2.53;;;1.20;;
27313;SDS011;14800;48.174;9.798;2024-02-21T11:21:46;3.38;;;1.27;;
27313;SDS011;14800;48.174;9.798;2024-02-21T11:27:11;2.45;;;1.20;;
27313;SDS011;14800;48.174;9.798;2024-02-21T11:29:40;2.83;;;1.20;;
27313;SDS011;14800;48.174;9.798;2024-02-21T11:32:10;2.15;;;1.00;;
27313;SDS011;14800;48.174;9.798;2024-02-21T11:34:38;1.27;;;0.90;;
27313;SDS011;14800;48.174;9.798;2024-02-21T11:37:13;1.20;;;0.75;;
27313;SDS011;14800;48.174;9.798;2024-02-21T11:39:41;1.77;;;0.83;;
27313;SDS011;14800;48.174;9.798;2024-02-21T11:42:07;3.33;;;1.00;;
27313;SDS011;14800;48.174;9.798;2024-02-21T11:44:34;1.48;;;0.88;;
27313;SDS011;14800;48.174;9.798;2024-02-21T11:47:00;1.35;;;0.73;;
27313;SDS011;14800;48.174;9.798;2024-02-21T11:49:27;1.98;;;0.80;;
27313;SDS011;14800;48.174;9.798;2024-02-21T11:51:57;0.95;;;0.70;;
27313;SDS011;14800;48.174;9.798;2024-02-21T11:54:24;1.77;;;0.70;;
27313;SDS011;14800;48.174;9.798;2024-02-21T11:56:49;1.77;;;0.65;;
27313;SDS011;14800;48.174;9.798;2024-02-21T11:59:15;1.98;;;0.70;;
27313;SDS011;14800;48.174;9.798;2024-02-21T12:01:41;1.25;;;0.70;;
27313;SDS011;14800;48.174;9.798;2024-02-21T12:04:06;0.70;;;0.50;;
27313;SDS011;14800;48.174;9.798;2024-02-21T12:06:33;1.30;;;0.60;;
27313;SDS011;14800;48.174;9.798;2024-02-21T12:08:59;2.05;;;0.70;;
27313;SDS011;14800;48.174;9.798;2024-02-21T12:11:24;0.75;;;0.40;;
27313;SDS011;14800;48.174;9.798;2024-02-21T12:14:02;2.90;;;0.88;;
27313;SDS011;14800;48.174;9.798;2024-02-21T12:16:29;1.10;;;0.50;;
27313;SDS011;14800;48.174;9.798;2024-02-21T12:18:56;1.85;;;0.47;;
27313;SDS011;14800;48.174;9.798;2024-02-21T12:21:40;1.42;;;0.50;;
27313;SDS011;14800;48.174;9.798;2024-02-21T12:24:12;2.25;;;0.50;;
27313;SDS011;14800;48.174;9.798;2024-02-21T12:26:46;1.23;;;0.40;;
27313;SDS011;14800;48.174;9.798;2024-02-21T12:29:11;1.27;;;0.50;;
27313;SDS011;14800;48.174;9.798;2024-02-21T12:31:37;2.30;;;0.50;;
27313;SDS011;14800;48.174;9.798;2024-02-21T12:34:03;0.52;;;0.50;;
27313;SDS011;14800;48.174;9.798;2024-02-21T12:36:30;2.30;;;0.70;;
27313;SDS011;14800;48.174;9.798;2024-02-21T12:38:59;4.38;;;0.80;;
27313;SDS011;14800;48.174;9.798;2024-02-21T12:41:27;0.82;;;0.80;;
27313;SDS011;14800;48.174;9.798;2024-02-21T12:43:53;1.08;;;0.75;;
27313;SDS011;14800;48.174;9.798;2024-02-21T12:46:18;3.28;;;0.80;;
27313;SDS011;14800;48.174;9.798;2024-02-21T12:48:44;1.08;;;0.80;;
27313;SDS011;14800;48.174;9.798;2024-02-21T12:51:10;0.60;;;0.60;;
27313;SDS011;14800;48.174;9.798;2024-02-21T12:53:35;3.08;;;0.90;;
27313;SDS011;14800;48.174;9.798;2024-02-21T12:56:01;2.25;;;0.90;;
27313;SDS011;14800;48.174;9.798;2024-02-21T12:58:26;2.75;;;0.60;;
27313;SDS011;14800;48.174;9.798;2024-02-21T13:00:53;2.67;;;0.68;;
27313;SDS011;14800;48.174;9.798;2024-02-21T13:03:19;1.67;;;0.70;;
27313;SDS011;14800;48.174;9.798;2024-02-21T13:05:46;0.77;;;0.60;;
27313;SDS011;14800;48.174;9.798;2024-02-21T13:08:13;1.25;;;0.50;;
27313;SDS011;14800;48.174;9.798;2024-02-21T13:10:39;1.13;;;0.70;;
27313;SDS011;14800;48.174;9.798;2024-02-21T13:13:04;1.58;;;0.80;;
27313;SDS011;14800;48.174;9.798;2024-02-21T13:15:30;2.40;;;0.63;;
27313;SDS011;14800;48.174;9.798;2024-02-21T13:17:56;2.42;;;0.77;;
27313;SDS011;14800;48.174;9.798;2024-02-21T13:20:22;2.78;;;0.75;;
27313;SDS011;14800;48.174;9.798;2024-02-21T13:22:48;3.40;;;0.90;;
27313;SDS011;14800;48.174;9.798;2024-02-21T13:25:14;1.90;;;0.60;;
27313;SDS011;14800;48.174;9.798;2024-02-21T13:27:43;1.20;;;0.70;;
27313;SDS011;14800;48.174;9.798;2024-02-21T13:30:09;1.05;;;0.70;;
27313;SDS011;14800;48.174;9.798;2024-02-21T13:32:35;1.25;;;0.52;;
27313;SDS011;14800;48.174;9.798;2024-02-21T13:35:01;1.30;;;0.70;;
27313;SDS011;14800;48.174;9.798;2024-02-21T13:37:28;1.27;;;0.70;;
27313;SDS011;14800;48.174;9.798;2024-02-21T13:39:53;1.02;;;0.70;;
27313;SDS011;14800;48.174;9.798;2024-02-21T13:42:19;1.52;;;0.80;;
27313;SDS011;14800;48.174;9.798;2024-02-21T13:44:45;1.75;;;0.98;;
27313;SDS011;14800;48.174;9.798;2024-02-21T13:47:14;1.52;;;0.80;;
27313;SDS011;14800;48.174;9.798;2024-02-21T13:49:40;1.00;;;0.70;;
27313;SDS011;14800;48.174;9.798;2024-02-21T13:52:06;1.15;;;0.73;;
27313;SDS011;14800;48.174;9.798;2024-02-21T13:54:31;2.10;;;0.70;;
27313;SDS011;14800;48.174;9.798;2024-02-21T13:56:57;2.15;;;0.70;;
27313;SDS011;14800;48.174;9.798;2024-02-21T13:59:23;1.80;;;1.17;;
27313;SDS011;14800;48.174;9.798;2024-02-21T14:01:48;1.13;;;0.52;;
27313;SDS011;14800;48.174;9.798;2024-02-21T14:04:14;1.48;;;0.52;;
27313;SDS011;14800;48.174;9.798;2024-02-21T14:06:39;1.58;;;0.73;;
27313;SDS011;14800;48.174;9.798;2024-02-21T14:09:09;0.70;;;0.40;;
27313;SDS011;14800;48.174;9.798;2024-02-21T14:11:35;1.15;;;0.60;;
27313;SDS011;14800;48.174;9.798;2024-02-21T14:14:00;1.65;;;0.60;;
27313;SDS011;14800;48.174;9.798;2024-02-21T14:16:26;1.58;;;0.55;;
27313;SDS011;14800;48.174;9.798;2024-02-21T14:18:52;0.80;;;0.50;;
27313;SDS011;14800;48.174;9.798;2024-02-21T14:21:19;0.38;;;0.32;;
27313;SDS011;14800;48.174;9.798;2024-02-21T14:23:44;0.82;;;0.60;;
27313;SDS011;14800;48.174;9.798;2024-02-21T14:26:10;0.77;;;0.50;;
27313;SDS011;14800;48.174;9.798;2024-02-21T14:28:37;1.80;;;0.68;;
27313;SDS011;14800;48.174;9.798;2024-02-21T14:31:02;0.80;;;0.50;;
27313;SDS011;14800;48.174;9.798;2024-02-21T14:33:30;1.08;;;0.63;;
27313;SDS011;14800;48.174;9.798;2024-02-21T14:35:56;1.58;;;0.60;;
27313;SDS011;14800;48.174;9.798;2024-02-21T14:38:22;1.30;;;0.50;;
27313;SDS011;14800;48.174;9.798;2024-02-21T14:40:48;1.00;;;0.50;;
27313;SDS011;14800;48.174;9.798;2024-02-21T14:43:13;0.93;;;0.57;;
27313;SDS011;14800;48.174;9.798;2024-02-21T14:45:39;0.90;;;0.32;;
27313;SDS011;14800;48.174;9.798;2024-02-21T14:48:05;1.65;;;0.80;;